createdAt,value
2018-05-25T00:00:20.096Z,100016.06
2018-05-25T00:02:50.557Z,100022.08
2018-05-25T00:05:22.014Z,100031.15
2018-05-25T00:07:52.858Z,100022.81
2018-05-25T00:10:23.307Z,100027.52
2018-05-25T00:12:53.742Z,100022.52
2018-05-25T00:15:25.271Z,100026.50
2018-05-25T00:17:55.924Z,100022.80
2018-05-25T00:23:30.385Z,100029.69
2018-05-25T00:26:00.888Z,100028.97
2018-05-25T00:28:31.577Z,100027.86
2018-05-25T00:31:02.116Z,100028.27
2018-05-25T00:36:36.992Z,100023.06
2018-05-25T00:39:07.558Z,100027.75
2018-05-25T00:41:38.079Z,100028.02
2018-05-25T00:44:08.632Z,100026.80
2018-05-25T00:46:39.079Z,100030.16
2018-05-25T00:53:19.015Z,100024.61
2018-05-25T00:55:52.991Z,100019.70
2018-05-25T00:58:24.643Z,100023.94
2018-05-25T01:00:56.518Z,100024.45
2018-05-25T01:03:29.025Z,100029.27
2018-05-25T01:06:00.697Z,100035.59
2018-05-25T01:08:35.839Z,100029.27
2018-05-25T01:11:07.560Z,100029.12
2018-05-25T01:13:38.290Z,100023.23
2018-05-25T01:16:29.399Z,100021.61
2018-05-25T01:18:59.898Z,100016.78
2018-05-25T01:21:30.454Z,100020.28
2018-05-25T01:24:01.576Z,100021.53
2018-05-25T01:26:32.472Z,100011.25
2018-05-25T01:29:02.983Z,100007.02
2018-05-25T01:31:33.912Z,100004.72
2018-05-25T01:34:04.459Z,100009.69
2018-05-25T01:36:34.958Z,100006.51
2018-05-25T01:41:45.898Z,100008.56
2018-05-25T01:44:16.373Z,100006.16
2018-05-25T01:46:48.373Z,100004.34
2018-05-25T01:49:18.905Z,99999.81
2018-05-25T01:51:49.482Z,100006.34
2018-05-25T01:54:20.368Z,100004.24
2018-05-25T01:56:50.894Z,100004.24
2018-05-25T01:59:22.407Z,100003.05
2018-05-25T02:01:53.392Z,100005.66
2018-05-25T02:04:24.749Z,100002.44
2018-05-25T02:06:55.326Z,100005.68
2018-05-25T02:09:28.460Z,100011.00
2018-05-25T02:11:58.841Z,100003.88
2018-05-25T02:14:29.812Z,100002.94
2018-05-25T02:17:00.434Z,100006.34
2018-05-25T02:19:32.211Z,100010.00
2018-05-25T02:22:04.050Z,100009.31
2018-05-25T02:24:34.579Z,100009.09
2018-05-25T02:27:05.172Z,99997.61
2018-05-25T02:29:35.943Z,100003.63
2018-05-25T02:32:06.537Z,99997.61
2018-05-25T02:34:37.064Z,99998.65
2018-05-25T02:37:08.960Z,100000.06
2018-05-25T02:39:39.518Z,99993.27
2018-05-25T02:42:10.047Z,100003.59
2018-05-25T02:44:40.875Z,99999.42
2018-05-25T02:47:11.458Z,100001.78
2018-05-25T02:49:42.030Z,99997.48
2018-05-25T02:52:13.087Z,100001.70
2018-05-25T02:54:43.579Z,100003.59
2018-05-25T02:57:14.193Z,100012.48
2018-05-25T02:59:49.382Z,100008.37
2018-05-25T03:02:20.014Z,100010.66
2018-05-25T03:04:50.590Z,100010.66
2018-05-25T03:07:22.407Z,100011.30
2018-05-25T03:09:52.856Z,100017.27
2018-05-25T03:12:23.617Z,100008.86
2018-05-25T03:14:54.324Z,100013.16
2018-05-25T03:17:24.962Z,100015.30
2018-05-25T03:19:55.532Z,100014.48
2018-05-25T03:22:26.088Z,100011.77
2018-05-25T03:24:56.615Z,100005.77
2018-05-25T03:27:27.103Z,100004.52
2018-05-25T03:29:57.710Z,100006.34
2018-05-25T03:32:28.207Z,100014.44
2018-05-25T03:34:58.745Z,100013.37
2018-05-25T03:37:29.255Z,100025.07
2018-05-25T03:39:59.820Z,100023.07
2018-05-25T03:42:30.324Z,100017.98
2018-05-25T03:45:00.823Z,100018.37
2018-05-25T03:47:33.105Z,100023.92
2018-05-25T03:50:03.630Z,100029.59
2018-05-25T03:52:34.229Z,100031.59
2018-05-25T03:55:05.175Z,100033.23
2018-05-25T03:57:35.704Z,100039.50
2018-05-25T04:00:18.149Z,100037.55
2018-05-25T04:02:48.379Z,100038.77
2018-05-25T04:05:19.444Z,100036.17
2018-05-25T04:07:49.991Z,100032.98
2018-05-25T04:10:20.534Z,100035.33
2018-05-25T04:12:51.090Z,100030.17
2018-05-25T04:15:22.439Z,100034.95
2018-05-25T04:17:53.034Z,100029.03
2018-05-25T04:20:23.556Z,100036.93
2018-05-25T04:22:54.068Z,100024.72
2018-05-25T04:25:24.586Z,100029.09
2018-05-25T04:27:55.223Z,100031.73
2018-05-25T04:30:25.735Z,100026.47
2018-05-25T04:32:56.334Z,100025.59
2018-05-25T04:35:28.306Z,100032.69
2018-05-25T04:37:58.923Z,100028.27
2018-05-25T04:40:30.221Z,100031.23
2018-05-25T04:43:00.879Z,100031.98
2018-05-25T04:45:32.691Z,100034.91
2018-05-25T04:48:03.255Z,100030.77
2018-05-25T04:50:33.815Z,100032.79
2018-05-25T04:53:04.344Z,100037.37
2018-05-25T04:55:34.924Z,100041.16
2018-05-25T04:58:05.596Z,100046.18
2018-05-25T05:00:36.174Z,100043.97
2018-05-25T05:03:06.758Z,100043.08
2018-05-25T05:05:37.361Z,100038.80
2018-05-25T05:08:08.062Z,100037.30
2018-05-25T05:10:38.886Z,100042.68
2018-05-25T05:13:09.410Z,100044.03
2018-05-25T05:15:39.841Z,100042.30
2018-05-25T05:18:10.482Z,100044.92
2018-05-25T05:20:40.999Z,100052.45
2018-05-25T05:23:13.841Z,100056.30
2018-05-25T05:25:44.351Z,100057.91
2018-05-25T05:28:14.882Z,100059.55
2018-05-25T05:30:45.907Z,100058.04
2018-05-25T05:33:16.486Z,100061.75
2018-05-25T05:35:47.024Z,100064.62
2018-05-25T05:38:17.877Z,100062.12
2018-05-25T05:40:48.472Z,100059.35
2018-05-25T05:43:20.952Z,100060.69
2018-05-25T05:45:51.506Z,100058.76
2018-05-25T05:48:22.125Z,100068.22
2018-05-25T05:50:53.038Z,100078.42
2018-05-25T05:53:23.722Z,100080.64
2018-05-25T05:55:54.332Z,100085.23
2018-05-25T05:58:25.182Z,100088.56
2018-05-25T06:00:55.754Z,100085.30
2018-05-25T06:03:26.280Z,100088.03
2018-05-25T06:05:57.164Z,100085.19
2018-05-25T06:08:28.592Z,100091.96
2018-05-25T06:10:59.264Z,100104.50
2018-05-25T06:13:29.759Z,100097.58
2018-05-25T06:16:00.330Z,100098.10
2018-05-25T06:18:31.098Z,100094.20
2018-05-25T06:21:01.675Z,100086.67
2018-05-25T06:23:32.234Z,100101.84
2018-05-25T06:26:03.241Z,100083.58
2018-05-25T06:28:33.798Z,100094.33
2018-05-25T06:31:04.279Z,100090.17
2018-05-25T06:33:35.332Z,100081.26
2018-05-25T06:36:05.891Z,100082.53
2018-05-25T06:38:36.410Z,100090.84
2018-05-25T06:41:06.960Z,100096.95
2018-05-25T06:43:37.689Z,100088.67
2018-05-25T06:46:08.208Z,100096.77
2018-05-25T06:48:38.691Z,100106.57
2018-05-25T06:51:09.241Z,100105.55
2018-05-25T06:53:41.221Z,100103.45
2018-05-25T06:56:11.799Z,100099.67
2018-05-25T06:58:42.315Z,100112.11
2018-05-25T07:01:12.870Z,100111.13
2018-05-25T07:03:43.399Z,100114.42
2018-05-25T07:06:14.011Z,100122.86
2018-05-25T07:08:44.580Z,100127.20
2018-05-25T07:11:15.173Z,100134.89
2018-05-25T07:13:45.695Z,100135.77
2018-05-25T07:16:16.255Z,100137.72
2018-05-25T07:18:47.143Z,100136.06
2018-05-25T07:21:17.814Z,100138.51
2018-05-25T07:23:48.359Z,100136.69
2018-05-25T07:26:18.887Z,100132.65
2018-05-25T07:28:49.933Z,100143.48
2018-05-25T07:31:21.561Z,100141.84
2018-05-25T07:33:52.390Z,100141.50
2018-05-25T07:36:22.908Z,100137.33
2018-05-25T07:38:53.487Z,100129.63
2018-05-25T07:41:24.255Z,100144.31
2018-05-25T07:43:54.907Z,100133.86
2018-05-25T07:46:25.431Z,100137.11
2018-05-25T07:48:55.953Z,100136.86
2018-05-25T07:51:26.519Z,100137.56
2018-05-25T07:53:57.061Z,100143.63
2018-05-25T07:56:28.249Z,100142.26
2018-05-25T07:58:58.742Z,100140.59
2018-05-25T08:01:29.409Z,100142.15
2018-05-25T08:04:00.585Z,100137.88
2018-05-25T08:06:31.103Z,100144.88
2018-05-25T08:09:02.487Z,100136.12
2018-05-25T08:11:33.335Z,100139.66
2018-05-25T08:14:03.863Z,100140.59
2018-05-25T08:16:34.367Z,100134.20
2018-05-25T08:19:04.974Z,100143.41
2018-05-25T08:21:36.170Z,100142.15
2018-05-25T08:24:06.902Z,100142.73
2018-05-25T08:26:37.409Z,100144.08
2018-05-25T08:29:07.934Z,100143.78
2018-05-25T08:31:40.857Z,100142.63
2018-05-25T08:34:11.609Z,100137.84
2018-05-25T08:36:42.264Z,100137.83
2018-05-25T08:39:13.219Z,100153.59
2018-05-25T08:41:46.805Z,100150.80
2018-05-25T08:46:50.305Z,100154.73
2018-05-25T08:49:21.003Z,100155.37
2018-05-25T08:51:52.061Z,100152.72
2018-05-25T08:54:22.723Z,100154.33
2018-05-25T08:56:53.403Z,100158.75
2018-05-25T08:59:24.203Z,100152.16
2018-05-25T09:01:54.748Z,100155.01
2018-05-25T09:04:25.371Z,100155.01
2018-05-25T09:06:56.226Z,100157.98
2018-05-25T09:09:26.802Z,100165.90
2018-05-25T09:12:00.064Z,100152.86
2018-05-25T09:14:31.779Z,100160.16
2018-05-25T09:17:03.087Z,100151.33
2018-05-25T09:19:33.702Z,100158.88
2018-05-25T09:22:04.397Z,100165.12
2018-05-25T09:24:35.783Z,100159.83
2018-05-25T09:27:06.827Z,100159.34
2018-05-25T09:29:38.231Z,100161.02
2018-05-25T09:32:08.763Z,100162.52
2018-05-25T09:34:39.791Z,100167.45
2018-05-25T09:37:10.339Z,100158.41
2018-05-25T09:39:40.974Z,100160.59
2018-05-25T09:42:11.756Z,100168.52
2018-05-25T09:44:42.331Z,100160.38
2018-05-25T09:47:13.323Z,100164.73
2018-05-25T09:49:44.763Z,100168.10
2018-05-25T09:52:15.451Z,100170.20
2018-05-25T09:54:46.382Z,100167.47
2018-05-25T09:57:18.897Z,100166.23
2018-05-25T09:59:50.047Z,100165.13
2018-05-25T10:02:20.578Z,100164.39
2018-05-25T10:04:51.104Z,100170.62
2018-05-25T10:07:21.821Z,100173.05
2018-05-25T10:09:52.313Z,100171.41
2018-05-25T10:12:23.323Z,100169.17
2018-05-25T10:14:56.470Z,100170.98
2018-05-25T10:17:27.235Z,100166.81
2018-05-25T10:19:57.847Z,100166.27
2018-05-25T10:22:28.501Z,100163.48
2018-05-25T10:25:00.643Z,100162.35
2018-05-25T10:27:31.369Z,100158.47
2018-05-25T10:30:04.203Z,100157.52
2018-05-25T10:32:36.150Z,100159.39
2018-05-25T10:35:06.808Z,100149.91
2018-05-25T10:37:38.400Z,100152.70
2018-05-25T10:40:09.440Z,100162.94
2018-05-25T10:42:40.047Z,100148.69
2018-05-25T10:45:15.568Z,100150.58
2018-05-25T10:47:46.255Z,100152.81
2018-05-25T10:50:16.893Z,100140.26
2018-05-25T10:52:48.792Z,100141.34
2018-05-25T10:55:19.352Z,100135.63
2018-05-25T10:57:49.895Z,100141.28
2018-05-25T11:00:20.458Z,100147.34
2018-05-25T11:02:51.065Z,100142.95
2018-05-25T11:05:21.978Z,100146.39
2018-05-25T11:07:53.079Z,100145.95
2018-05-25T11:10:23.649Z,100132.02
2018-05-25T11:12:54.575Z,100126.07
2018-05-25T11:15:25.163Z,100123.48
2018-05-25T11:17:55.491Z,100117.14
2018-05-25T11:20:26.083Z,100110.87
2018-05-25T11:22:56.614Z,100107.75
2018-05-25T11:25:27.554Z,100101.70
2018-05-25T11:27:59.101Z,100106.10
2018-05-25T11:30:29.769Z,100109.33
2018-05-25T11:33:00.942Z,100104.83
2018-05-25T11:35:31.579Z,100103.04
2018-05-25T11:38:02.130Z,100096.95
2018-05-25T11:40:34.651Z,100091.16
2018-05-25T11:43:05.314Z,100085.69
2018-05-25T11:45:36.352Z,100087.67
2018-05-25T11:48:06.980Z,100088.23
2018-05-25T11:50:37.791Z,100086.62
2018-05-25T11:53:08.536Z,100092.65
2018-05-25T11:55:39.193Z,100083.53
2018-05-25T11:58:10.263Z,100080.09
2018-05-25T12:00:41.267Z,100080.91
2018-05-25T12:03:12.592Z,100076.25
2018-05-25T12:05:43.263Z,100079.95
2018-05-25T12:08:13.891Z,100084.45
2018-05-25T12:10:44.945Z,100078.47
2018-05-25T12:13:15.860Z,100083.48
2018-05-25T12:15:46.528Z,100089.42
2018-05-25T12:18:17.554Z,100073.80
2018-05-25T12:20:48.125Z,100073.06
2018-05-25T12:23:18.607Z,100075.19
2018-05-25T12:25:49.335Z,100071.24
2018-05-25T12:28:19.844Z,100070.39
2018-05-25T12:30:52.706Z,100066.66
2018-05-25T12:33:23.277Z,100058.04
2018-05-25T12:35:53.839Z,100054.97
2018-05-25T12:38:25.560Z,100053.78
2018-05-25T12:40:57.023Z,100054.48
2018-05-25T12:43:27.600Z,100060.25
2018-05-25T12:45:58.224Z,100053.39
2018-05-25T12:48:28.416Z,100053.44
2018-05-25T12:51:01.300Z,100057.23
2018-05-25T12:53:32.645Z,100054.86
2018-05-25T12:56:03.187Z,100056.47
2018-05-25T12:58:35.545Z,100050.16
2018-05-25T13:01:08.434Z,100051.78
2018-05-25T13:03:41.159Z,100051.38
2018-05-25T13:06:13.475Z,100052.41
2018-05-25T13:08:44.061Z,100051.72
2018-05-25T13:11:15.062Z,100052.52
2018-05-25T13:13:46.664Z,100045.20
2018-05-25T13:16:18.115Z,100053.03
2018-05-25T13:18:50.442Z,100047.52
2018-05-25T13:21:22.707Z,100055.98
2018-05-25T13:23:54.799Z,100046.61
2018-05-25T13:26:26.226Z,100047.97
2018-05-25T13:28:57.617Z,100050.13
2018-05-25T13:31:29.034Z,100051.85
2018-05-25T13:34:00.571Z,100049.80
2018-05-25T13:36:33.139Z,100047.80
2018-05-25T13:39:05.955Z,100050.45
2018-05-25T13:41:37.475Z,100053.70
2018-05-25T13:44:09.172Z,100049.93
2018-05-25T13:46:40.715Z,100050.50
2018-05-25T13:49:12.919Z,100048.14
2018-05-25T13:51:45.987Z,100044.64
2018-05-25T13:54:18.287Z,100043.44
2018-05-25T13:56:54.285Z,100042.05
2018-05-25T13:59:25.691Z,100042.25
2018-05-25T14:01:56.974Z,100039.56
2018-05-25T14:04:28.672Z,100040.49
2018-05-25T14:07:01.089Z,100045.09
2018-05-25T14:09:33.495Z,100043.43
2018-05-25T14:12:03.987Z,100045.73
2018-05-25T14:14:34.493Z,100042.51
2018-05-25T14:17:06.005Z,100033.48
2018-05-25T14:19:36.498Z,100029.95
2018-05-25T14:22:07.776Z,100031.31
2018-05-25T14:24:38.579Z,100029.51
2018-05-25T14:27:09.867Z,100018.95
2018-05-25T14:29:42.460Z,100025.92
2018-05-25T14:32:14.078Z,100028.39
2018-05-25T14:34:46.422Z,100026.80
2018-05-25T14:37:16.988Z,100018.16
2018-05-25T14:39:47.551Z,100022.48
2018-05-25T14:42:20.277Z,100026.16
2018-05-25T14:44:52.969Z,100020.54
2018-05-25T14:47:23.599Z,100024.52
2018-05-25T14:49:56.413Z,100020.05
2018-05-25T14:52:28.906Z,100023.17
2018-05-25T14:55:00.415Z,100013.30
2018-05-25T14:57:31.123Z,100012.12
2018-05-25T15:00:06.375Z,100025.03
2018-05-25T15:02:37.306Z,100021.33
2018-05-25T15:05:08.780Z,100026.47
2018-05-25T15:07:40.230Z,100024.00
2018-05-25T15:10:11.138Z,100023.68
2018-05-25T15:12:43.638Z,100022.80
2018-05-25T15:15:16.321Z,100024.18
2018-05-25T15:17:48.681Z,100025.80
2018-05-25T15:20:20.149Z,100030.84
2018-05-25T15:22:52.847Z,100034.59
2018-05-25T15:25:24.950Z,100032.58
2018-05-25T15:27:55.198Z,100027.67
2018-05-25T15:30:28.895Z,100031.13
2018-05-25T15:33:00.380Z,100030.89
2018-05-25T15:35:32.891Z,100031.12
2018-05-25T15:38:04.933Z,100030.13
2018-05-25T15:40:36.003Z,100028.62
2018-05-25T15:43:09.714Z,100028.35
2018-05-25T15:45:41.254Z,100027.77
2018-05-25T15:48:14.008Z,100020.52
2018-05-25T15:50:44.524Z,100025.48
2018-05-25T15:53:15.014Z,100019.22
2018-05-25T15:55:46.892Z,100024.91
2018-05-25T15:58:18.067Z,100016.92
2018-05-25T16:00:49.583Z,100021.02
2018-05-25T16:03:20.999Z,100013.85
2018-05-25T16:05:53.315Z,100017.14
2018-05-25T16:08:24.886Z,100012.48
2018-05-25T16:10:56.015Z,100009.19
2018-05-25T16:13:27.442Z,100009.55
2018-05-25T16:15:59.907Z,100009.91
2018-05-25T16:18:31.119Z,100003.91
2018-05-25T16:21:02.575Z,100003.50
2018-05-25T16:23:35.573Z,100002.17
2018-05-25T16:26:07.358Z,100000.17
2018-05-25T16:28:39.165Z,99995.74
2018-05-25T16:31:10.319Z,100002.11
2018-05-25T16:33:41.417Z,100000.79
2018-05-25T16:36:13.264Z,99995.41
2018-05-25T16:38:44.367Z,99990.81
2018-05-25T16:41:15.467Z,99992.66
2018-05-25T16:43:46.672Z,99994.36
2018-05-25T16:46:17.731Z,99997.44
2018-05-25T16:48:49.142Z,100004.18
2018-05-25T16:51:20.287Z,100002.20
2018-05-25T16:53:52.119Z,100005.28
2018-05-25T16:56:24.508Z,100000.20
2018-05-25T16:58:56.155Z,99994.01
2018-05-25T17:01:28.414Z,99994.53
2018-05-25T17:03:59.568Z,99996.80
2018-05-25T17:06:30.627Z,99994.05
2018-05-25T17:09:02.071Z,99994.11
2018-05-25T17:11:33.209Z,99999.66
2018-05-25T17:14:05.369Z,99995.69
2018-05-25T17:16:37.882Z,99994.23
2018-05-25T17:19:09.111Z,99992.48
2018-05-25T17:21:40.433Z,99997.86
2018-05-25T17:24:11.536Z,100002.61
2018-05-25T17:26:42.924Z,100005.64
2018-05-25T17:29:14.423Z,99998.60
2018-05-25T17:31:45.543Z,100004.86
2018-05-25T17:34:16.632Z,99999.38
2018-05-25T17:36:48.301Z,99995.61
2018-05-25T17:39:19.690Z,100001.83
2018-05-25T17:41:50.811Z,100003.66
2018-05-25T17:44:22.170Z,100000.30
2018-05-25T17:46:53.587Z,100004.23
2018-05-25T17:49:25.427Z,100005.53
2018-05-25T17:51:56.825Z,100011.78
2018-05-25T17:54:29.085Z,100010.09
2018-05-25T17:57:00.239Z,100008.21
2018-05-25T17:59:31.507Z,100006.83
2018-05-25T18:02:04.565Z,100013.64
2018-05-25T18:04:35.905Z,100011.77
2018-05-25T18:07:07.410Z,100009.58
2018-05-25T18:09:38.490Z,100012.36
2018-05-25T18:12:09.729Z,100016.17
2018-05-25T18:14:41.311Z,100012.55
2018-05-25T18:17:12.463Z,100012.22
2018-05-25T18:19:43.795Z,100018.68
2018-05-25T18:22:14.998Z,100015.78
2018-05-25T18:24:46.107Z,100018.31
2018-05-25T18:27:17.515Z,100009.73
2018-05-25T18:29:48.867Z,100021.64
2018-05-25T18:32:20.741Z,100017.05
2018-05-25T18:34:52.220Z,100017.55
2018-05-25T18:37:24.256Z,100015.78
2018-05-25T18:39:56.345Z,100016.19
2018-05-25T18:42:28.893Z,100022.69
2018-05-25T18:45:00.095Z,100013.95
2018-05-25T18:47:32.382Z,100015.89
2018-05-25T18:50:03.918Z,100016.47
2018-05-25T18:52:35.053Z,100017.84
2018-05-25T18:55:06.252Z,100019.77
2018-05-25T18:57:37.333Z,100029.52
2018-05-25T19:00:08.813Z,100028.42
2018-05-25T19:02:39.399Z,100039.66
2018-05-25T19:05:11.680Z,100039.52
2018-05-25T19:07:42.815Z,100043.64
2018-05-25T19:10:14.833Z,100045.14
2018-05-25T19:12:46.851Z,100028.09
2018-05-25T19:15:19.275Z,100041.95
2018-05-25T19:17:50.320Z,100040.84
2018-05-25T19:20:21.464Z,100038.23
2018-05-25T19:22:52.999Z,100042.88
2018-05-25T19:25:25.872Z,100046.94
2018-05-25T19:27:56.998Z,100052.29
2018-05-25T19:30:28.385Z,100061.45
2018-05-25T19:32:58.674Z,100056.09
2018-05-25T19:35:29.842Z,100057.59
2018-05-25T19:38:01.906Z,100068.38
2018-05-25T19:40:33.931Z,100069.86
2018-05-25T19:43:05.347Z,100073.23
2018-05-25T19:45:36.551Z,100071.26
2018-05-25T19:48:07.897Z,100073.83
2018-05-25T19:50:39.020Z,100075.30
2018-05-25T19:53:10.523Z,100081.72
2018-05-25T19:55:42.035Z,100086.90
2018-05-25T19:58:14.086Z,100087.83
2018-05-25T20:00:44.524Z,100089.91
2018-05-25T20:03:16.839Z,100097.17
2018-05-25T20:05:47.058Z,100093.94
2018-05-25T20:08:17.312Z,100091.44
2018-05-25T20:10:48.415Z,100092.92
2018-05-25T20:13:18.723Z,100096.28
2018-05-25T20:15:50.125Z,100098.98
2018-05-25T20:18:21.068Z,100094.81
2018-05-25T20:20:51.272Z,100096.95
2018-05-25T20:23:21.620Z,100095.71
2018-05-25T20:25:51.877Z,100099.52
2018-05-25T20:28:22.397Z,100096.70
2018-05-25T20:30:52.782Z,100094.59
2018-05-25T20:33:22.954Z,100089.09
2018-05-25T20:35:54.378Z,100092.05
2018-05-25T20:38:24.647Z,100094.20
2018-05-25T20:40:54.943Z,100095.16
2018-05-25T20:43:25.372Z,100099.06
2018-05-25T20:45:55.604Z,100106.46
2018-05-25T20:48:29.136Z,100100.05
2018-05-25T20:50:59.375Z,100097.31
2018-05-25T20:53:31.680Z,100099.65
2018-05-25T20:56:03.773Z,100100.33
2018-05-25T20:58:35.940Z,100102.50
2018-05-25T21:01:07.332Z,100100.14
2018-05-25T21:03:38.455Z,100097.28
2018-05-25T21:06:10.179Z,100096.52
2018-05-25T21:08:40.375Z,100093.45
2018-05-25T21:11:11.614Z,100095.38
2018-05-25T21:13:42.995Z,100101.05
2018-05-25T21:16:14.052Z,100090.89
2018-05-25T21:18:45.207Z,100092.08
2018-05-25T21:21:16.863Z,100095.75
2018-05-25T21:23:48.075Z,100094.32
2018-05-25T21:26:19.188Z,100097.96
2018-05-25T21:28:50.483Z,100103.36
2018-05-25T21:31:21.611Z,100102.84
2018-05-25T21:33:53.727Z,100102.17
2018-05-25T21:36:24.952Z,100101.83
2018-05-25T21:38:56.104Z,100104.85
2018-05-25T21:41:28.685Z,100109.62
2018-05-25T21:43:59.886Z,100114.91
2018-05-25T21:46:31.040Z,100114.23
2018-05-25T21:49:02.129Z,100115.64
2018-05-25T21:51:33.215Z,100107.63
2018-05-25T21:54:04.626Z,100106.34
2018-05-25T21:56:35.881Z,100115.64
2018-05-25T21:59:07.508Z,100109.37
2018-05-25T22:01:38.985Z,100105.73
2018-05-25T22:04:09.653Z,100108.05
2018-05-25T22:06:40.781Z,100102.87
2018-05-25T22:09:11.950Z,100104.35
2018-05-25T22:11:44.015Z,100107.50
2018-05-25T22:14:16.303Z,100104.39
2018-05-25T22:16:47.488Z,100103.27
2018-05-25T22:19:18.831Z,100111.66
2018-05-25T22:21:50.792Z,100111.92
2018-05-25T22:24:21.874Z,100115.83
2018-05-25T22:26:54.335Z,100115.27
2018-05-25T22:29:25.423Z,100121.91
2018-05-25T22:31:57.495Z,100118.58
2018-05-25T22:34:29.119Z,100120.58
2018-05-25T22:36:59.288Z,100130.02
2018-05-25T22:39:31.625Z,100129.88
2018-05-25T22:42:00.429Z,100125.55
2018-05-25T22:44:42.717Z,100126.93
2018-05-25T22:47:31.461Z,100131.30
2018-05-25T22:50:20.603Z,100124.66
2018-05-25T22:53:00.287Z,100124.58
2018-05-25T22:55:31.048Z,100124.91
2018-05-25T22:58:02.136Z,100118.59
2018-05-25T23:00:33.263Z,100124.80
2018-05-25T23:03:05.850Z,100121.06
2018-05-25T23:05:37.242Z,100128.73
2018-05-25T23:08:08.626Z,100129.06
2018-05-25T23:10:39.989Z,100132.20
2018-05-25T23:13:11.474Z,100142.32
2018-05-25T23:15:43.150Z,100133.86
2018-05-25T23:18:15.450Z,100128.55
2018-05-25T23:20:46.801Z,100135.55
2018-05-25T23:23:19.071Z,100137.26
2018-05-25T23:25:50.281Z,100136.20
2018-05-25T23:28:23.200Z,100139.45
2018-05-25T23:30:55.431Z,100141.45
2018-05-25T23:33:27.050Z,100146.18
2018-05-25T23:35:58.439Z,100149.47
2018-05-25T23:38:31.014Z,100140.43
2018-05-25T23:41:03.703Z,100146.56
2018-05-25T23:43:36.233Z,100147.39
2018-05-25T23:46:07.788Z,100138.39
2018-05-25T23:48:44.748Z,100131.13
2018-05-25T23:51:17.059Z,100144.47
2018-05-25T23:53:48.434Z,100139.82
2018-05-25T23:58:56.364Z,100136.41
